Lanoraie, Canada
Current Conditions -  °F | °C
As of 8:00 PM on Friday 31 Oct 2014 (Local Time) from CYHU Reporting Station
Broken Clouds Broken Clouds  
Wind Chill: 29°   Ceiling: 14000
Heat Index: 34°   Visibility: 9mi
Dew Point: 28°   Wind: 6mph
Humidity: 81%   Direction: 30°NNE
Pressure: 30.11"   Gusts: NA
Location:  45.97°N, 73.22°W
Report Text: CYHU 010000Z AUTO 03005KT 9SM SCT120 BKN140 BKN170 01/M02 A3011 RMK SLP197
Loading
Personal Weather Stations






























Interactive Weather Map
Tropical Storm Tracking
New forecast layout! Learn more

10-Day Weather Forecast

Advertisements
Track Severe Weather on mobile